Time;durP1;ratioP1;P1;durP2;ratioP2;P2;SDS_P1;SDS_P2;PMS_P1;PMS_P2;Temp;Humidity;BMP_temperature;BMP_pressure;BME280_temperature;BME280_humidity;BME280_pressure;Samples;Min_cycle;Max_cycle;Signal;HPM_P1;HPM_P2
2022/08/29 00:00:11;;;;;;;3.97;1.40;;;;;;;14.84;80.94;101300.69;691723;28;3913;-45
2022/08/29 00:00:32;;;;;;;3.35;1.50;;;;;;;14.83;81.12;101298.97;691965;28;1222;-46
2022/08/29 00:00:52;;;;;;;4.72;1.50;;;;;;;14.81;82.21;101309.53;692710;28;1463;-47
2022/08/29 00:01:13;;;;;;;5.28;1.60;;;;;;;14.76;82.19;101300.81;692291;28;1984;-46
2022/08/29 00:01:34;;;;;;;4.97;1.70;;;;;;;14.75;81.82;101301.69;694955;28;1182;-48
2022/08/29 00:01:55;;;;;;;4.00;1.98;;;;;;;14.74;82.40;101301.69;691429;28;4356;-44
2022/08/29 00:02:15;;;;;;;4.70;1.90;;;;;;;14.72;82.69;101299.09;692387;28;1435;-46
2022/08/29 00:02:35;;;;;;;4.40;1.80;;;;;;;14.72;82.51;101303.50;691573;28;1381;-46
2022/08/29 00:02:58;;;;;;;4.57;1.60;;;;;;;14.74;82.21;101299.06;693378;28;1143;-48
2022/08/29 00:03:19;;;;;;;4.63;1.80;;;;;;;14.76;82.53;101302.53;693044;28;961;-46
2022/08/29 00:03:40;;;;;;;5.87;1.60;;;;;;;14.71;82.29;101301.75;692337;28;1407;-46
2022/08/29 00:04:01;;;;;;;4.78;1.50;;;;;;;14.69;83.17;101304.41;692671;28;1177;-45
2022/08/29 00:04:22;;;;;;;6.22;2.00;;;;;;;14.66;83.00;101295.66;692866;28;1084;-45
2022/08/29 00:04:42;;;;;;;4.80;1.80;;;;;;;14.67;83.01;101297.41;691836;28;1150;-42
2022/08/29 00:05:03;;;;;;;3.28;1.55;;;;;;;14.68;82.74;101299.16;692167;28;4467;-44
2022/08/29 00:05:28;;;;;;;4.57;1.77;;;;;;;14.65;82.77;101300.06;693433;28;1179;-46
2022/08/29 00:05:48;;;;;;;5.40;1.80;;;;;;;14.66;83.16;101303.56;692224;28;1299;-48
2022/08/29 00:06:09;;;;;;;4.55;1.80;;;;;;;14.67;83.50;101305.31;689281;28;1283;-48
2022/08/29 00:06:30;;;;;;;3.88;1.73;;;;;;;14.67;82.76;101302.66;688400;28;1053;-45
2022/08/29 00:06:50;;;;;;;4.88;1.73;;;;;;;14.68;82.79;101301.78;690177;28;1278;-47
2022/08/29 00:07:10;;;;;;;5.30;1.83;;;;;;;14.67;82.74;101300.03;689441;28;1220;-46
2022/08/29 00:07:31;;;;;;;4.80;1.87;;;;;;;14.62;83.01;101300.97;686150;28;1468;-47
2022/08/29 00:07:52;;;;;;;5.95;2.00;;;;;;;14.64;83.07;101301.81;684967;28;4424;-46
2022/08/29 00:08:12;;;;;;;4.57;1.95;;;;;;;14.69;81.94;101295.63;689528;28;1426;-49
2022/08/29 00:08:33;;;;;;;5.00;2.00;;;;;;;14.69;82.27;101300.88;692780;28;1460;-46
2022/08/29 00:08:53;;;;;;;4.80;2.00;;;;;;;14.66;82.16;101296.53;692118;28;1174;-46
2022/08/29 00:09:13;;;;;;;4.53;1.87;;;;;;;14.66;82.40;101295.66;692131;28;1255;-47
2022/08/29 00:09:34;;;;;;;5.03;1.70;;;;;;;14.66;82.29;101298.28;691913;28;1406;-46
2022/08/29 00:09:54;;;;;;;5.17;2.00;;;;;;;14.63;83.25;101291.31;691896;28;1224;-45
2022/08/29 00:10:15;;;;;;;5.10;2.00;;;;;;;14.59;83.19;101290.44;692699;28;1288;-46
2022/08/29 00:10:37;;;;;;;4.57;2.00;;;;;;;14.57;83.26;101291.34;691650;28;1358;-46
2022/08/29 00:10:57;;;;;;;4.72;1.90;;;;;;;14.56;83.12;101293.09;690747;28;4523;-49
2022/08/29 00:11:18;;;;;;;5.33;2.10;;;;;;;14.56;83.07;101295.72;693368;28;1160;-46
2022/08/29 00:11:39;;;;;;;6.55;2.33;;;;;;;14.54;82.74;101292.25;692499;28;1119;-45
2022/08/29 00:11:59;;;;;;;6.10;2.23;;;;;;;14.58;82.59;101291.34;692785;28;1322;-45
2022/08/29 00:12:20;;;;;;;5.18;2.05;;;;;;;14.60;82.88;101294.78;692407;28;1079;-46
2022/08/29 00:12:40;;;;;;;5.43;2.30;;;;;;;14.56;82.73;101286.97;692069;28;1137;-45
2022/08/29 00:13:01;;;;;;;6.95;2.20;;;;;;;14.55;82.98;101291.38;689761;28;1476;-47
2022/08/29 00:13:22;;;;;;;6.22;2.10;;;;;;;14.56;82.45;101286.97;688625;28;1165;-43
2022/08/29 00:13:42;;;;;;;5.47;2.10;;;;;;;14.54;83.34;101291.34;688093;28;1108;-46
2022/08/29 00:14:02;;;;;;;4.90;2.10;;;;;;;14.48;83.29;101287.94;688564;28;4470;-45
2022/08/29 00:14:23;;;;;;;5.37;2.00;;;;;;;14.42;83.98;101287.13;688820;28;1207;-46
2022/08/29 00:14:44;;;;;;;5.65;2.30;;;;;;;14.39;83.26;101288.03;689044;28;1614;-47
2022/08/29 00:15:07;;;;;;;5.30;2.10;;;;;;;14.44;83.57;101285.34;691403;28;1329;-49
2022/08/29 00:15:27;;;;;;;5.95;2.00;;;;;;;14.44;83.18;101285.34;691624;28;1056;-44
2022/08/29 00:15:48;;;;;;;6.43;2.30;;;;;;;14.46;82.97;101291.47;692502;28;1329;-45
2022/08/29 00:16:09;;;;;;;5.53;2.20;;;;;;;14.46;82.75;101283.56;691804;28;1191;-47
2022/08/29 00:16:29;;;;;;;6.38;2.85;;;;;;;14.46;82.53;101283.56;686347;28;1250;-42
2022/08/29 00:16:50;;;;;;;5.47;2.13;;;;;;;14.46;82.72;101289.69;684191;28;4297;-45
2022/08/29 00:17:10;;;;;;;5.77;2.27;;;;;;;14.45;82.90;101285.34;684408;28;1318;-45
2022/08/29 00:17:31;;;;;;;5.77;2.73;;;;;;;14.47;82.90;101283.56;687202;28;1187;-44
2022/08/29 00:17:51;;;;;;;6.63;2.65;;;;;;;14.45;82.79;101282.72;686453;28;1322;-45
2022/08/29 00:18:16;;;;;;;5.65;2.40;;;;;;;14.46;82.61;101281.81;686561;28;1531;-44
2022/08/29 00:18:37;;;;;;;5.90;2.35;;;;;;;14.45;82.93;101281.81;690253;28;1380;-44
2022/08/29 00:18:58;;;;;;;6.07;2.30;;;;;;;14.47;82.58;101288.81;693120;28;1353;-45
2022/08/29 00:19:19;;;;;;;5.53;2.55;;;;;;;14.48;82.82;101287.03;691336;28;1305;-49
2022/08/29 00:19:39;;;;;;;5.90;2.70;;;;;;;14.49;82.53;101283.53;690353;28;1275;-46
2022/08/29 00:20:00;;;;;;;5.47;2.22;;;;;;;14.46;83.13;101279.16;692183;28;4252;-46
2022/08/29 00:20:25;;;;;;;7.03;2.58;;;;;;;14.44;82.78;101273.06;688285;28;1155;-45
2022/08/29 00:20:46;;;;;;;5.57;2.28;;;;;;;14.45;82.37;101281.81;688784;28;1239;-45
2022/08/29 00:21:07;;;;;;;5.50;2.42;;;;;;;14.44;82.52;101280.97;689307;28;1981;-43
2022/08/29 00:21:27;;;;;;;6.67;2.50;;;;;;;14.45;82.70;101279.19;689412;28;1422;-45
2022/08/29 00:21:48;;;;;;;6.35;2.42;;;;;;;14.44;82.39;101274.81;691523;28;1460;-45
2022/08/29 00:22:08;;;;;;;6.17;2.40;;;;;;;14.46;82.32;101283.56;690068;28;1262;-46
2022/08/29 00:22:29;;;;;;;6.20;2.30;;;;;;;14.46;82.54;101276.53;692658;28;1122;-47
2022/08/29 00:22:49;;;;;;;5.30;2.20;;;;;;;14.48;82.56;101277.41;691863;28;4593;-45
2022/08/29 00:23:10;;;;;;;5.25;2.30;;;;;;;14.50;82.57;101277.38;692040;28;1150;-44
2022/08/29 00:23:31;;;;;;;5.28;2.33;;;;;;;14.48;82.72;101273.88;692464;28;1338;-48
2022/08/29 00:23:52;;;;;;;4.55;2.20;;;;;;;14.46;82.69;101279.16;689531;28;1206;-43
2022/08/29 00:24:12;;;;;;;4.53;2.30;;;;;;;14.47;82.44;101280.06;690237;28;1060;-44
2022/08/29 00:24:32;;;;;;;5.00;2.20;;;;;;;14.48;82.92;101281.78;686105;28;1514;-47
2022/08/29 00:24:53;;;;;;;5.00;2.17;;;;;;;14.48;83.49;101284.41;686750;28;1510;-47
2022/08/29 00:25:13;;;;;;;5.30;2.10;;;;;;;14.43;84.42;101283.63;689193;28;1184;-45
2022/08/29 00:25:34;;;;;;;6.07;2.30;;;;;;;14.40;85.01;101281.00;688873;28;1171;-45
2022/08/29 00:25:55;;;;;;;6.10;2.40;;;;;;;14.39;83.53;101288.03;690489;28;4412;-45
2022/08/29 00:26:15;;;;;;;5.70;2.20;;;;;;;14.38;83.78;101280.16;691249;28;1054;-45
2022/08/29 00:26:35;;;;;;;5.30;2.20;;;;;;;14.37;83.32;101279.28;694239;28;861;-45
2022/08/29 00:26:59;;;;;;;5.10;2.10;;;;;;;14.37;83.34;101276.66;691464;28;1053;-46
2022/08/29 00:27:19;;;;;;;6.75;2.50;;;;;;;14.34;83.96;101283.69;690625;28;1213;-48
2022/08/29 00:27:40;;;;;;;6.40;2.33;;;;;;;14.30;84.15;101282.84;691251;28;949;-47
2022/08/29 00:28:01;;;;;;;5.63;2.08;;;;;;;14.34;83.78;101283.69;689528;28;1245;-45
2022/08/29 00:28:22;;;;;;;5.85;2.33;;;;;;;14.38;83.44;101286.28;688711;28;1155;-43
2022/08/29 00:28:42;;;;;;;6.57;2.42;;;;;;;14.36;84.31;101282.81;688629;28;1024;-47
2022/08/29 00:29:03;;;;;;;5.28;2.22;;;;;;;14.39;83.17;101276.66;688391;28;4303;-48
2022/08/29 00:29:24;;;;;;;5.43;2.20;;;;;;;14.41;83.35;101280.13;687987;28;1152;-48
2022/08/29 00:29:44;;;;;;;5.57;2.40;;;;;;;14.41;83.37;101280.13;689719;28;1136;-47
2022/08/29 00:30:06;;;;;;;5.40;2.22;;;;;;;14.40;83.23;101283.63;692947;28;1218;-46
2022/08/29 00:30:27;;;;;;;5.15;2.08;;;;;;;14.39;83.02;101282.75;691928;28;1080;-46
2022/08/29 00:30:48;;;;;;;5.68;2.15;;;;;;;14.39;83.37;101284.53;692751;28;1282;-45
2022/08/29 00:31:09;;;;;;;6.30;2.40;;;;;;;14.39;83.03;101281.91;692743;28;1085;-45
2022/08/29 00:31:30;;;;;;;5.55;2.25;;;;;;;14.40;82.87;101284.50;692751;28;1217;-44
2022/08/29 00:31:50;;;;;;;5.17;2.00;;;;;;;14.41;83.12;101280.13;690288;28;4697;-45
2022/08/29 00:32:10;;;;;;;4.95;2.15;;;;;;;14.39;84.22;101292.44;693240;28;1020;-47
2022/08/29 00:32:35;;;;;;;4.93;2.13;;;;;;;14.39;83.75;101276.66;692376;28;1054;-45
2022/08/29 00:32:55;;;;;;;5.22;2.60;;;;;;;14.39;83.98;101287.16;692099;28;963;-50
2022/08/29 00:33:16;;;;;;;5.57;2.20;;;;;;;14.40;83.19;101278.38;692778;28;1365;-46
2022/08/29 00:33:36;;;;;;;5.82;2.42;;;;;;;14.38;83.59;101288.03;691843;28;1230;-45
2022/08/29 00:33:57;;;;;;;6.20;2.40;;;;;;;14.38;83.34;101290.69;691909;28;1320;-46
2022/08/29 00:34:17;;;;;;;5.50;2.33;;;;;;;14.39;83.44;101288.03;690760;28;1027;-50
2022/08/29 00:34:37;;;;;;;5.40;2.30;;;;;;;14.38;83.30;101288.03;692147;28;956;-46
2022/08/29 00:34:58;;;;;;;5.13;2.20;;;;;;;14.37;83.18;101286.28;692294;28;4297;-51
2022/08/29 00:35:27;;;;;;;5.70;2.30;;;;;;;14.37;83.96;101289.81;692293;28;975;-45
2022/08/29 00:35:47;;;;;;;5.40;2.40;;;;;;;14.29;84.59;101292.50;692320;28;1421;-43
2022/08/29 00:36:08;;;;;;;5.70;2.40;;;;;;;14.25;84.96;101290.78;692213;28;1292;-49
2022/08/29 00:36:29;;;;;;;6.00;2.35;;;;;;;14.31;83.71;101293.34;692405;28;1088;-45
2022/08/29 00:36:50;;;;;;;5.97;2.30;;;;;;;14.35;83.01;101288.09;690527;28;959;-43
2022/08/29 00:37:10;;;;;;;5.63;2.20;;;;;;;14.35;83.48;101291.56;689398;28;1182;-44
2022/08/29 00:37:31;;;;;;;4.70;2.13;;;;;;;14.35;83.17;101293.34;688706;28;1141;-49
2022/08/29 00:37:53;;;;;;;5.17;2.03;;;;;;;14.36;83.68;101288.06;688869;28;5255;-44
2022/08/29 00:38:15;;;;;;;5.20;2.15;;;;;;;14.37;82.94;101288.91;689194;28;1256;-49
2022/08/29 00:38:36;;;;;;;6.43;2.22;;;;;;;14.36;83.06;101288.06;690870;28;1265;-45
2022/08/29 00:38:56;;;;;;;5.68;2.10;;;;;;;14.35;83.11;101288.09;693457;28;1051;-45
2022/08/29 00:39:17;;;;;;;5.73;2.37;;;;;;;14.36;82.66;101284.53;694549;28;939;-47
2022/08/29 00:39:38;;;;;;;5.32;2.08;;;;;;;14.36;82.75;101292.44;692592;28;1100;-47
2022/08/29 00:39:58;;;;;;;5.80;2.20;;;;;;;14.39;82.99;101287.16;692288;28;1260;-49
2022/08/29 00:40:23;;;;;;;6.20;2.33;;;;;;;14.41;82.67;101285.38;692106;28;993;-44
2022/08/29 00:40:50;;;;;;;5.70;2.40;;;;;;;14.42;82.90;101289.75;682592;28;1212;-45
2022/08/29 00:41:10;;;;;;;6.30;2.45;;;;;;;14.41;83.93;101285.38;682909;28;4718;-42
2022/08/29 00:41:31;;;;;;;5.10;2.00;;;;;;;14.37;84.29;101288.91;683277;28;1280;-45
2022/08/29 00:41:51;;;;;;;5.60;2.20;;;;;;;14.30;85.29;101282.84;684113;28;1057;-42
2022/08/29 00:42:11;;;;;;;5.57;2.20;;;;;;;14.33;84.11;101285.47;683811;28;1135;-46
2022/08/29 00:42:34;;;;;;;5.35;2.10;;;;;;;14.29;84.14;101279.38;684544;28;1071;-44
2022/08/29 00:42:55;;;;;;;5.47;2.20;;;;;;;14.24;85.26;101286.41;689172;28;940;-47
2022/08/29 00:43:17;;;;;;;5.15;2.10;;;;;;;14.21;85.20;101285.59;690087;28;1127;-46
2022/08/29 00:43:37;;;;;;;5.35;2.30;;;;;;;14.18;84.76;101283.84;692191;28;959;-44
2022/08/29 00:43:58;;;;;;;5.53;2.25;;;;;;;14.22;84.25;101284.69;691213;28;4525;-49
2022/08/29 00:44:19;;;;;;;7.17;2.37;;;;;;;14.19;85.88;101290.88;691772;28;1253;-48
2022/08/29 00:44:39;;;;;;;4.93;2.23;;;;;;;14.21;85.00;101289.09;689760;28;949;-47
2022/08/29 00:45:01;;;;;;;4.50;2.10;;;;;;;14.24;83.83;101293.44;689463;28;5045;-46
2022/08/29 00:45:22;;;;;;;4.90;2.13;;;;;;;14.25;84.87;101290.78;687166;28;1187;-42
2022/08/29 00:45:51;;;;;;;6.05;2.25;;;;;;;14.25;84.93;101292.56;687440;28;1682;-47
2022/08/29 00:46:45;;;;;;;5.90;2.30;;;;;;;14.19;85.17;101288.25;685772;28;1030;-47
2022/08/29 00:47:10;;;;;;;6.13;2.40;;;;;;;14.16;85.03;101285.63;688462;28;4826;-43
2022/08/29 00:47:35;;;;;;;6.00;2.42;;;;;;;14.18;84.32;101288.22;692205;28;1048;-46
2022/08/29 00:48:14;;;;;;;5.72;2.20;;;;;;;14.18;84.42;101293.50;691860;28;1060;-46
2022/08/29 00:48:37;;;;;;;4.97;2.10;;;;;;;14.22;83.54;101289.94;691790;28;1020;-46
2022/08/29 00:49:03;;;;;;;6.05;2.40;;;;;;;14.21;84.55;101286.44;692532;28;1384;-46
2022/08/29 00:49:38;;;;;;;4.97;2.17;;;;;;;14.20;85.32;101289.09;692092;28;1266;-45
2022/08/29 00:50:01;;;;;;;4.95;2.10;;;;;;;14.13;85.97;101294.41;689071;28;4352;-49
2022/08/29 00:50:27;;;;;;;5.80;2.20;;;;;;;14.10;85.19;101291.81;690754;28;1077;-42
2022/08/29 00:50:53;;;;;;;8.45;2.53;;;;;;;14.16;84.19;101284.75;690831;28;1050;-46
2022/08/29 00:51:17;;;;;;;6.20;2.10;;;;;;;14.15;85.32;101294.41;691276;28;1065;-45
2022/08/29 00:51:39;;;;;;;4.22;2.00;;;;;;;14.11;86.09;101295.34;693629;28;1074;-48
2022/08/29 00:52:07;;;;;;;5.05;1.95;;;;;;;14.08;86.26;101293.59;692527;28;991;-46
2022/08/29 00:52:38;;;;;;;4.57;2.15;;;;;;;14.01;86.21;101291.03;692879;28;1020;-47
2022/08/29 00:53:02;;;;;;;6.05;2.50;;;;;;;14.03;85.07;101299.78;691091;28;4481;-47
2022/08/29 00:53:33;;;;;;;6.05;2.42;;;;;;;14.10;85.02;101301.47;692793;28;944;-47
2022/08/29 00:54:00;;;;;;;5.32;2.40;;;;;;;14.03;85.25;101292.75;692548;28;1090;-45
2022/08/29 00:54:21;;;;;;;6.25;2.40;;;;;;;14.04;84.48;101288.34;693553;28;1217;-47
2022/08/29 00:54:43;;;;;;;5.07;2.22;;;;;;;14.05;84.57;101291.00;692729;28;1075;-44
2022/08/29 00:55:12;;;;;;;5.25;2.38;;;;;;;14.08;84.11;101288.34;695065;28;1443;-46
2022/08/29 00:55:34;;;;;;;5.78;2.35;;;;;;;14.10;84.22;101290.94;692705;28;1071;-47
2022/08/29 00:55:56;;;;;;;6.25;2.25;;;;;;;14.09;84.40;101291.81;691154;28;4437;-46
2022/08/29 00:56:17;;;;;;;5.78;2.40;;;;;;;14.04;84.77;101293.63;689219;28;1200;-45
2022/08/29 00:56:40;;;;;;;5.03;2.25;;;;;;;14.02;84.59;101292.78;687521;28;1136;-45
2022/08/29 00:57:01;;;;;;;5.15;2.40;;;;;;;14.01;84.94;101293.66;687591;28;1147;-47
2022/08/29 00:57:25;;;;;;;5.75;2.38;;;;;;;13.99;84.63;101293.66;687924;28;1143;-45
2022/08/29 00:57:51;;;;;;;5.15;2.17;;;;;;;13.97;84.84;101290.19;686780;28;1417;-47
2022/08/29 00:58:39;;;;;;;5.15;2.20;;;;;;;13.96;84.33;101299.81;688266;28;1104;-42
2022/08/29 00:59:09;;;;;;;6.15;2.33;;;;;;;13.93;84.93;101291.13;691985;28;4397;-43
2022/08/29 00:59:33;;;;;;;5.22;2.42;;;;;;;13.88;85.85;101291.13;692000;28;1498;-44
2022/08/29 00:59:54;;;;;;;5.60;2.40;;;;;;;13.84;86.27;101294.66;692848;28;1154;-45
2022/08/29 01:00:16;;;;;;;4.93;2.17;;;;;;;13.85;85.34;101291.16;692514;28;1075;-44
2022/08/29 01:00:37;;;;;;;6.15;2.33;;;;;;;13.90;85.69;101294.63;691790;28;1118;-49
2022/08/29 01:00:57;;;;;;;6.85;2.50;;;;;;;13.89;85.94;101295.50;692880;28;971;-46
2022/08/29 01:01:19;;;;;;;6.70;2.35;;;;;;;13.86;86.45;101292.03;688674;28;1930;-47
2022/08/29 01:01:39;;;;;;;6.03;2.28;;;;;;;13.86;86.53;101294.66;688971;28;1317;-45
2022/08/29 01:02:03;;;;;;;5.05;2.33;;;;;;;13.87;86.46;101296.41;688692;28;4652;-47
2022/08/29 01:02:24;;;;;;;6.13;2.30;;;;;;;13.85;86.41;101296.41;688127;28;1095;-45
2022/08/29 01:02:46;;;;;;;4.57;2.22;;;;;;;13.88;85.64;101290.28;690213;28;1471;-45
2022/08/29 01:03:06;;;;;;;5.32;2.28;;;;;;;13.83;86.47;101292.94;691211;28;1059;-46
2022/08/29 01:03:31;;;;;;;5.07;2.30;;;;;;;13.71;87.40;101298.28;695009;28;1091;-44
2022/08/29 01:03:52;;;;;;;5.32;2.30;;;;;;;13.61;87.74;101287.84;693863;28;1341;-45
2022/08/29 01:04:13;;;;;;;5.95;2.58;;;;;;;13.58;87.98;101292.25;695268;28;1130;-47
2022/08/29 01:04:34;;;;;;;5.28;2.50;;;;;;;13.63;86.54;101290.47;693827;28;1079;-46
2022/08/29 01:04:54;;;;;;;4.85;2.28;;;;;;;13.66;86.31;101292.19;694469;28;4506;-47
2022/08/29 01:05:16;;;;;;;5.70;2.33;;;;;;;13.68;86.30;101283.44;692904;28;1328;-50
2022/08/29 01:05:37;;;;;;;6.13;2.40;;;;;;;13.69;87.84;101289.53;692778;28;1072;-48
2022/08/29 01:05:57;;;;;;;5.07;2.30;;;;;;;13.66;88.50;101289.56;691205;28;1115;-45
2022/08/29 01:06:19;;;;;;;6.13;2.40;;;;;;;13.61;88.40;101290.47;692630;28;1039;-44
2022/08/29 01:06:40;;;;;;;5.93;2.30;;;;;;;13.56;88.58;101287.00;693194;28;1114;-47
2022/08/29 01:07:01;;;;;;;5.22;2.30;;;;;;;13.57;87.53;101291.38;691770;28;1283;-46
2022/08/29 01:07:22;;;;;;;6.00;2.40;;;;;;;13.61;86.79;101287.84;692145;28;1132;-43
2022/08/29 01:07:43;;;;;;;6.32;2.38;;;;;;;13.63;86.91;101286.06;692321;28;1242;-42
2022/08/29 01:08:05;;;;;;;4.57;2.15;;;;;;;13.69;86.66;101286.91;692295;28;4369;-47
2022/08/29 01:08:25;;;;;;;6.50;2.30;;;;;;;13.68;86.46;101287.78;692714;28;1946;-45
2022/08/29 01:08:46;;;;;;;7.82;2.50;;;;;;;13.66;86.10;101286.94;692627;28;1091;-46
2022/08/29 01:09:08;;;;;;;6.37;2.60;;;;;;;13.66;86.46;101289.56;695292;28;1181;-47
2022/08/29 01:09:30;;;;;;;7.15;2.50;;;;;;;13.63;86.35;101291.31;695326;28;1151;-49
2022/08/29 01:09:51;;;;;;;6.20;2.40;;;;;;;13.65;86.31;101287.81;695289;28;1283;-47
2022/08/29 01:12:14;;;;;;;5.82;2.40;;;;;;;13.65;86.45;101293.94;691822;28;1256;-45
2022/08/29 01:12:18;;;;;;;6.80;2.40;;;;;;;13.67;87.13;101286.06;691872;28;1155;-45
2022/08/29 01:12:38;;;;;;;5.97;2.45;;;;;;;13.68;87.07;101288.69;689912;28;1125;-42
2022/08/29 01:12:59;;;;;;;4.68;2.25;;;;;;;13.70;86.75;101286.91;689907;28;1203;-49
2022/08/29 01:13:27;;;;;;;5.18;2.33;;;;;;;13.75;85.88;101290.38;689074;28;1041;-47
2022/08/29 01:13:48;;;;;;;6.68;2.40;;;;;;;13.75;86.09;101289.50;688117;28;4426;-49
2022/08/29 01:14:09;;;;;;;6.55;2.50;;;;;;;13.76;86.25;101292.13;689805;28;1293;-47
2022/08/29 01:14:29;;;;;;;5.80;2.28;;;;;;;13.77;85.90;101292.97;692016;28;1468;-45
2022/08/29 01:14:58;;;;;;;5.90;2.30;;;;;;;13.71;85.95;101288.66;695895;28;1077;-45
2022/08/29 01:15:19;;;;;;;5.75;2.33;;;;;;;13.68;86.32;101293.94;693920;28;1215;-46
2022/08/29 01:15:42;;;;;;;5.15;2.17;;;;;;;13.67;86.56;101291.31;694728;28;993;-45
2022/08/29 01:16:05;;;;;;;5.27;2.43;;;;;;;13.66;86.40;101300.06;694704;28;1489;-50
2022/08/29 01:16:27;;;;;;;4.60;2.30;;;;;;;13.65;86.64;101293.06;693349;28;1249;-45
2022/08/29 01:16:51;;;;;;;4.32;2.22;;;;;;;13.68;86.57;101300.91;692023;28;4407;-46
2022/08/29 01:17:13;;;;;;;5.45;2.22;;;;;;;13.70;85.99;101297.41;692499;28;1202;-49
2022/08/29 01:17:41;;;;;;;5.50;2.30;;;;;;;13.73;85.95;101296.50;690554;28;1139;-47
2022/08/29 01:18:03;;;;;;;4.45;2.10;;;;;;;13.65;86.49;101288.69;691839;28;1596;-45
2022/08/29 01:18:26;;;;;;;5.40;2.42;;;;;;;13.63;86.75;101293.94;692504;28;1206;-42
2022/08/29 01:18:52;;;;;;;5.40;2.33;;;;;;;13.60;86.93;101293.97;691179;28;1303;-47
2022/08/29 01:19:17;;;;;;;5.70;2.70;;;;;;;13.57;86.83;101291.38;692023;28;1032;-43
2022/08/29 01:20:19;;;;;;;5.82;2.53;;;;;;;13.57;87.15;101295.78;692176;28;1292;-42
2022/08/29 01:21:04;;;;;;;6.20;2.40;;;;;;;13.59;86.90;101299.25;681017;28;4866;-47
2022/08/29 01:21:51;;;;;;;4.88;2.20;;;;;;;13.59;87.36;101299.25;679762;28;1555;-48
2022/08/29 01:22:33;;;;;;;5.00;2.17;;;;;;;13.51;88.11;101301.06;678258;28;1080;-48
2022/08/29 01:23:00;;;;;;;5.03;2.05;;;;;;;13.55;87.97;101295.75;675076;29;1311;-46
2022/08/29 01:23:35;;;;;;;4.78;2.17;;;;;;;13.54;87.34;101301.91;674990;29;1242;-46
2022/08/29 01:24:19;;;;;;;5.50;2.30;;;;;;;13.53;87.77;101304.56;675860;29;1242;-48
2022/08/29 01:24:49;;;;;;;4.97;2.00;;;;;;;13.54;86.48;101301.91;676723;28;1757;-51
2022/08/29 01:25:18;;;;;;;6.25;2.30;;;;;;;13.57;86.66;101307.13;678331;28;1629;-45
2022/08/29 01:25:45;;;;;;;5.50;2.30;;;;;;;13.64;86.71;101307.97;678231;29;1137;-49
2022/08/29 01:26:06;;;;;;;5.45;2.42;;;;;;;13.62;86.74;101304.47;678645;28;4932;-45
2022/08/29 01:26:29;;;;;;;5.68;2.20;;;;;;;13.62;86.67;101307.09;675199;29;1722;-45
2022/08/29 01:26:49;;;;;;;5.03;2.25;;;;;;;13.63;86.24;101308.84;686565;28;1125;-46
2022/08/29 01:27:11;;;;;;;5.78;1.98;;;;;;;13.61;86.22;101311.50;691380;28;1115;-49
2022/08/29 01:27:35;;;;;;;6.63;2.17;;;;;;;13.63;86.89;101308.84;692875;28;969;-50
2022/08/29 01:28:06;;;;;;;5.05;2.17;;;;;;;13.56;88.47;101313.28;690651;28;1429;-45
2022/08/29 01:28:32;;;;;;;5.38;2.20;;;;;;;13.47;89.15;101310.69;692715;28;1846;-45
2022/08/29 01:28:53;;;;;;;5.20;2.30;;;;;;;13.39;89.18;101323.88;692068;28;4424;-46
2022/08/29 01:29:14;;;;;;;5.38;2.42;;;;;;;13.33;89.51;101321.25;692617;28;1225;-49
2022/08/29 01:29:35;;;;;;;4.90;2.25;;;;;;;13.27;89.50;101314.28;692717;28;1167;-45
2022/08/29 01:29:56;;;;;;;5.20;2.03;;;;;;;13.28;89.36;101316.03;686277;28;1577;-42
2022/08/29 01:30:17;;;;;;;6.15;2.30;;;;;;;13.23;90.23;101312.56;688158;28;1213;-50
2022/08/29 01:30:56;;;;;;;5.20;2.20;;;;;;;13.09;90.73;101311.75;686969;28;1135;-43
2022/08/29 01:31:35;;;;;;;3.80;2.10;;;;;;;13.13;89.45;101317.88;686937;28;1040;-44
2022/08/29 01:31:56;;;;;;;5.82;2.38;;;;;;;13.19;88.79;101316.06;690582;28;4503;-46
2022/08/29 01:32:16;;;;;;;5.32;2.17;;;;;;;13.23;90.00;101314.31;690952;28;972;-47
2022/08/29 01:32:37;;;;;;;6.30;2.20;;;;;;;13.20;90.70;101317.81;695525;28;1064;-46
2022/08/29 01:32:59;;;;;;;5.90;2.30;;;;;;;13.25;89.53;101316.06;692466;28;1338;-43
2022/08/29 01:33:19;;;;;;;4.55;2.00;;;;;;;13.27;89.10;101319.53;693565;28;1052;-44
2022/08/29 01:33:48;;;;;;;5.15;2.15;;;;;;;13.25;88.83;101313.44;692742;28;1106;-47
2022/08/29 01:34:10;;;;;;;5.72;2.38;;;;;;;13.25;88.90;101316.06;692191;28;1083;-45
2022/08/29 01:34:30;;;;;;;4.13;2.03;;;;;;;13.23;89.54;101315.19;692591;28;1209;-51
2022/08/29 01:34:51;;;;;;;6.37;2.03;;;;;;;13.16;90.50;101318.72;692061;28;4436;-49
2022/08/29 01:35:12;;;;;;;5.70;2.10;;;;;;;13.08;91.33;101317.88;692221;28;1036;-46
2022/08/29 01:35:32;;;;;;;4.50;1.97;;;;;;;13.09;89.37;101315.25;691999;28;1063;-46
2022/08/29 01:35:52;;;;;;;5.00;2.33;;;;;;;13.15;89.34;101319.59;692087;28;1213;-50
2022/08/29 01:36:15;;;;;;;5.40;2.17;;;;;;;13.19;89.11;101316.06;692215;28;1419;-46
2022/08/29 01:36:46;;;;;;;5.03;2.13;;;;;;;13.16;89.18;101308.22;692347;28;949;-46
2022/08/29 01:37:09;;;;;;;4.95;1.90;;;;;;;13.15;89.27;101316.97;692261;28;1087;-48
2022/08/29 01:37:32;;;;;;;4.53;2.00;;;;;;;13.18;88.80;101314.34;692890;28;1099;-43
2022/08/29 01:37:53;;;;;;;4.85;2.40;;;;;;;13.14;90.34;101325.75;692319;28;4293;-43
2022/08/29 01:38:26;;;;;;;4.73;2.33;;;;;;;13.05;90.77;101317.91;692437;28;1198;-46
2022/08/29 01:38:48;;;;;;;6.20;2.17;;;;;;;12.98;91.65;101316.19;692568;28;1204;-50
2022/08/29 01:39:09;;;;;;;5.07;2.20;;;;;;;12.94;91.80;101313.59;691152;28;1138;-46
2022/08/29 01:39:33;;;;;;;5.45;2.13;;;;;;;12.93;91.70;101313.56;692933;28;1138;-45
2022/08/29 01:39:53;;;;;;;4.75;2.00;;;;;;;12.90;91.53;101319.72;693020;28;1174;-45
2022/08/29 01:40:14;;;;;;;4.43;1.97;;;;;;;12.96;90.00;101318.84;687457;28;1307;-46
2022/08/29 01:40:34;;;;;;;4.30;1.90;;;;;;;13.06;89.55;101320.53;686958;28;1207;-49
2022/08/29 01:40:57;;;;;;;5.43;2.30;;;;;;;13.08;90.76;101324.03;686369;28;4395;-45
2022/08/29 01:41:19;;;;;;;5.82;2.40;;;;;;;13.06;89.84;101317.91;686572;28;1978;-45
2022/08/29 01:41:41;;;;;;;5.78;2.10;;;;;;;13.08;89.80;101313.53;687801;28;1127;-46
2022/08/29 01:42:10;;;;;;;4.10;2.03;;;;;;;13.12;89.56;101319.63;690463;28;1411;-45
2022/08/29 01:42:30;;;;;;;4.45;1.98;;;;;;;13.14;89.11;101317.88;691781;28;1153;-48
2022/08/29 01:42:50;;;;;;;5.03;2.00;;;;;;;13.13;89.07;101315.25;692593;28;1324;-49
2022/08/29 01:43:11;;;;;;;4.13;1.80;;;;;;;13.11;89.58;101317.88;692759;28;1251;-46
2022/08/29 01:43:39;;;;;;;4.25;1.90;;;;;;;13.09;89.40;101317.88;692419;28;1440;-43
2022/08/29 01:44:07;;;;;;;5.50;2.03;;;;;;;13.10;89.31;101318.78;691922;28;4440;-49
2022/08/29 01:44:27;;;;;;;4.75;1.98;;;;;;;13.11;89.19;101325.75;691954;28;1092;-44
2022/08/29 01:44:54;;;;;;;4.80;2.13;;;;;;;13.14;89.10;101320.50;692048;28;1127;-45
2022/08/29 01:45:14;;;;;;;4.22;2.10;;;;;;;13.15;89.12;101324.84;691958;28;5038;-48
2022/08/29 01:45:35;;;;;;;4.70;2.00;;;;;;;13.15;89.42;101324.00;691206;28;1094;-47
2022/08/29 01:45:56;;;;;;;3.77;1.80;;;;;;;13.18;89.29;101326.59;693116;28;1044;-45
2022/08/29 01:46:26;;;;;;;3.70;1.80;;;;;;;13.11;89.88;101326.63;692327;28;1144;-47
2022/08/29 01:46:49;;;;;;;5.22;1.90;;;;;;;13.08;89.77;101325.75;691153;28;4415;-51
2022/08/29 01:47:10;;;;;;;5.13;1.90;;;;;;;13.05;91.06;101328.41;691585;28;1463;-50
2022/08/29 01:47:34;;;;;;;5.25;1.90;;;;;;;13.00;92.27;101324.91;692476;28;1076;-48
2022/08/29 01:47:54;;;;;;;4.75;1.90;;;;;;;12.92;92.80;101323.22;689871;28;1546;-46
2022/08/29 01:48:16;;;;;;;5.27;2.10;;;;;;;12.88;92.68;101331.97;689559;28;1015;-47
2022/08/29 01:48:39;;;;;;;4.00;1.88;;;;;;;12.79;94.21;101324.13;689488;28;1278;-48
2022/08/29 01:49:02;;;;;;;3.38;1.65;;;;;;;12.70;93.90;101337.28;689713;28;1470;-47
2022/08/29 01:49:23;;;;;;;3.72;1.80;;;;;;;12.58;94.35;101336.41;690818;28;1174;-50
2022/08/29 01:49:44;;;;;;;4.25;1.88;;;;;;;12.60;93.22;101332.06;692968;28;1151;-44
2022/08/29 01:50:12;;;;;;;3.50;1.83;;;;;;;12.71;92.59;101332.03;692269;28;4263;-45
2022/08/29 01:50:33;;;;;;;5.18;1.90;;;;;;;12.76;91.92;101332.00;691333;28;1258;-46
2022/08/29 01:50:55;;;;;;;4.77;1.90;;;;;;;12.86;91.05;101327.59;691968;28;1383;-46
2022/08/29 01:51:17;;;;;;;5.00;1.90;;;;;;;12.90;91.15;101330.22;692413;28;1123;-46